createdAt,value
2017-11-09T00:00:13.016Z,1016.76
2017-11-09T00:01:13.035Z,1016.72
2017-11-09T00:02:13.049Z,1016.77
2017-11-09T00:03:13.066Z,1016.75
2017-11-09T00:04:13.090Z,1016.75
2017-11-09T00:05:13.106Z,1016.79
2017-11-09T00:07:13.140Z,1016.76
2017-11-09T00:08:13.159Z,1016.79
2017-11-09T00:09:13.172Z,1016.75
2017-11-09T00:10:13.192Z,1016.74
2017-11-09T00:11:13.206Z,1016.74
2017-11-09T00:12:13.229Z,1016.75
2017-11-09T00:13:13.243Z,1016.72
2017-11-09T00:14:13.260Z,1016.69
2017-11-09T00:15:13.278Z,1016.74
2017-11-09T00:16:13.297Z,1016.74
2017-11-09T00:17:13.312Z,1016.66
2017-11-09T00:18:13.341Z,1016.73
2017-11-09T00:19:13.363Z,1016.68
2017-11-09T00:20:13.369Z,1016.7
2017-11-09T00:21:13.386Z,1016.69
2017-11-09T00:23:13.422Z,1016.68
2017-11-09T00:24:13.436Z,1016.64
2017-11-09T00:25:13.453Z,1016.65
2017-11-09T00:26:13.471Z,1016.64
2017-11-09T00:27:13.492Z,1016.61
2017-11-09T00:28:13.523Z,1016.62
2017-11-09T00:29:13.525Z,1016.64
2017-11-09T00:30:13.545Z,1016.64
2017-11-09T00:31:13.559Z,1016.65
2017-11-09T00:32:13.576Z,1016.61
2017-11-09T00:33:13.597Z,1016.62
2017-11-09T00:34:13.612Z,1016.63
2017-11-09T00:35:13.632Z,1016.61
2017-11-09T00:36:13.647Z,1016.67
2017-11-09T00:38:13.682Z,1016.63
2017-11-09T00:39:13.707Z,1016.57
2017-11-09T00:40:13.716Z,1016.64
2017-11-09T00:41:13.740Z,1016.58
2017-11-09T00:42:13.757Z,1016.61
2017-11-09T00:43:13.773Z,1016.62
2017-11-09T00:44:13.792Z,1016.6
2017-11-09T00:45:13.809Z,1016.61
2017-11-09T00:46:13.825Z,1016.67
2017-11-09T00:47:13.840Z,1016.68
2017-11-09T00:48:13.864Z,1016.66
2017-11-09T00:49:13.877Z,1016.69
2017-11-09T00:50:13.895Z,1016.65
2017-11-09T00:51:13.911Z,1016.63
2017-11-09T00:52:13.928Z,1016.66
2017-11-09T00:53:13.947Z,1016.63
2017-11-09T00:54:13.967Z,1016.62
2017-11-09T00:55:13.982Z,1016.62
2017-11-09T00:56:14.003Z,1016.61
2017-11-09T00:57:14.016Z,1016.57
2017-11-09T00:58:14.037Z,1016.55
2017-11-09T00:59:14.053Z,1016.52
2017-11-09T01:00:14.070Z,1016.51
2017-11-09T01:01:14.089Z,1016.51
2017-11-09T01:02:14.104Z,1016.45
2017-11-09T01:03:14.124Z,1016.46
2017-11-09T01:04:14.145Z,1016.49
2017-11-09T01:05:14.162Z,1016.43
2017-11-09T01:06:14.175Z,1016.45
2017-11-09T01:07:14.192Z,1016.47
2017-11-09T01:08:14.211Z,1016.43
2017-11-09T01:10:14.256Z,1016.44
2017-11-09T01:11:14.263Z,1016.42
2017-11-09T01:12:14.300Z,1016.43
2017-11-09T01:13:14.297Z,1016.47
2017-11-09T01:14:14.316Z,1016.49
2017-11-09T01:15:14.337Z,1016.46
2017-11-09T01:16:14.355Z,1016.48
2017-11-09T01:17:14.373Z,1016.44
2017-11-09T01:18:14.390Z,1016.47
2017-11-09T01:19:14.407Z,1016.44
2017-11-09T01:20:14.422Z,1016.49
2017-11-09T01:21:14.487Z,1016.45
2017-11-09T01:22:14.461Z,1016.45
2017-11-09T01:23:14.477Z,1016.44
2017-11-09T01:24:14.493Z,1016.44
2017-11-09T01:26:14.532Z,1016.44
2017-11-09T01:27:14.550Z,1016.43
2017-11-09T01:28:14.566Z,1016.41
2017-11-09T01:29:14.580Z,1016.41
2017-11-09T01:30:14.597Z,1016.37
2017-11-09T01:31:14.618Z,1016.45
2017-11-09T01:32:14.637Z,1016.43
2017-11-09T01:33:14.653Z,1016.37
2017-11-09T01:34:14.672Z,1016.44
2017-11-09T01:35:14.690Z,1016.41
2017-11-09T01:36:14.704Z,1016.4
2017-11-09T01:37:14.725Z,1016.39
2017-11-09T01:38:14.744Z,1016.38
2017-11-09T01:39:14.756Z,1016.37
2017-11-09T01:40:14.778Z,1016.39
2017-11-09T01:42:14.814Z,1016.38
2017-11-09T01:43:14.827Z,1016.34
2017-11-09T01:44:14.846Z,1016.42
2017-11-09T01:45:14.869Z,1016.37
2017-11-09T01:46:14.880Z,1016.35
2017-11-09T01:47:14.915Z,1016.34
2017-11-09T01:48:14.916Z,1016.36
2017-11-09T01:49:14.936Z,1016.36
2017-11-09T01:50:14.952Z,1016.37
2017-11-09T01:51:14.968Z,1016.35
2017-11-09T01:52:14.984Z,1016.39
2017-11-09T01:53:15.010Z,1016.4
2017-11-09T01:54:15.025Z,1016.39
2017-11-09T01:55:15.049Z,1016.37
2017-11-09T01:56:15.056Z,1016.34
2017-11-09T01:58:15.095Z,1016.38
2017-11-09T01:59:15.115Z,1016.34
2017-11-09T02:00:15.134Z,1016.39
2017-11-09T02:01:15.148Z,1016.38
2017-11-09T02:02:15.162Z,1016.37
2017-11-09T02:03:15.179Z,1016.38
2017-11-09T02:04:15.197Z,1016.38
2017-11-09T02:05:15.218Z,1016.36
2017-11-09T02:06:15.232Z,1016.36
2017-11-09T02:07:15.249Z,1016.31
2017-11-09T02:08:15.275Z,1016.35
2017-11-09T02:09:15.284Z,1016.3
2017-11-09T02:10:15.303Z,1016.33
2017-11-09T02:11:15.324Z,1016.34
2017-11-09T02:13:15.357Z,1016.41
2017-11-09T02:14:15.374Z,1016.37
2017-11-09T02:15:15.395Z,1016.37
2017-11-09T02:16:15.411Z,1016.37
2017-11-09T02:17:15.427Z,1016.33
2017-11-09T02:18:15.448Z,1016.36
2017-11-09T02:19:15.462Z,1016.36
2017-11-09T02:20:15.480Z,1016.38
2017-11-09T02:21:15.496Z,1016.41
2017-11-09T02:22:15.518Z,1016.42
2017-11-09T02:23:15.533Z,1016.39
2017-11-09T02:24:15.565Z,1016.44
2017-11-09T02:25:15.570Z,1016.4
2017-11-09T02:26:15.584Z,1016.4
2017-11-09T02:27:15.606Z,1016.38
2017-11-09T02:28:15.623Z,1016.39
2017-11-09T02:29:15.641Z,1016.39
2017-11-09T02:30:15.658Z,1016.4
2017-11-09T02:31:15.677Z,1016.39
2017-11-09T02:32:15.690Z,1016.42
2017-11-09T02:33:15.712Z,1016.41
2017-11-09T02:34:15.727Z,1016.41
2017-11-09T02:35:15.743Z,1016.42
2017-11-09T02:36:15.760Z,1016.42
2017-11-09T02:37:15.786Z,1016.4
2017-11-09T02:38:15.802Z,1016.41
2017-11-09T02:39:15.816Z,1016.43
2017-11-09T02:40:15.835Z,1016.41
2017-11-09T02:41:15.849Z,1016.42
2017-11-09T02:42:15.871Z,1016.42
2017-11-09T02:43:15.886Z,1016.38
2017-11-09T02:45:15.925Z,1016.47
2017-11-09T02:46:15.937Z,1016.49
2017-11-09T02:47:15.958Z,1016.43
2017-11-09T02:48:15.975Z,1016.42
2017-11-09T02:49:15.992Z,1016.44
2017-11-09T02:50:16.009Z,1016.38
2017-11-09T02:51:16.026Z,1016.38
2017-11-09T02:52:16.042Z,1016.42
2017-11-09T02:53:16.063Z,1016.4
2017-11-09T02:54:16.081Z,1016.39
2017-11-09T02:55:16.095Z,1016.38
2017-11-09T02:56:16.115Z,1016.37
2017-11-09T02:57:16.132Z,1016.38
2017-11-09T02:58:16.150Z,1016.4
2017-11-09T02:59:16.169Z,1016.41
2017-11-09T03:01:16.202Z,1016.42
2017-11-09T03:02:16.220Z,1016.41
2017-11-09T03:03:16.238Z,1016.41
2017-11-09T03:04:16.253Z,1016.4
2017-11-09T03:05:16.269Z,1016.38
2017-11-09T03:06:16.290Z,1016.36
2017-11-09T03:07:16.306Z,1016.4
2017-11-09T03:08:16.333Z,1016.37
2017-11-09T03:09:16.339Z,1016.4
2017-11-09T03:10:16.359Z,1016.38
2017-11-09T03:11:16.377Z,1016.4
2017-11-09T03:12:16.404Z,1016.38
2017-11-09T03:13:16.415Z,1016.4
2017-11-09T03:14:16.428Z,1016.4
2017-11-09T03:15:16.450Z,1016.45
2017-11-09T03:17:16.485Z,1016.43
2017-11-09T03:18:16.500Z,1016.41
2017-11-09T03:19:16.521Z,1016.49
2017-11-09T03:20:16.536Z,1016.47
2017-11-09T03:21:16.555Z,1016.49
2017-11-09T03:22:16.574Z,1016.47
2017-11-09T03:23:16.591Z,1016.47
2017-11-09T03:24:16.608Z,1016.45
2017-11-09T03:25:16.621Z,1016.45
2017-11-09T03:26:16.643Z,1016.41
2017-11-09T03:27:16.657Z,1016.46
2017-11-09T03:28:16.674Z,1016.5
2017-11-09T03:29:16.696Z,1016.49
2017-11-09T03:30:16.722Z,1016.44
2017-11-09T03:31:16.741Z,1016.44
2017-11-09T03:33:16.767Z,1016.4
2017-11-09T03:34:16.782Z,1016.43
2017-11-09T03:35:16.806Z,1016.41
2017-11-09T03:36:16.821Z,1016.4
2017-11-09T03:37:16.834Z,1016.4
2017-11-09T03:38:16.857Z,1016.41
2017-11-09T03:39:16.868Z,1016.38
2017-11-09T03:40:16.890Z,1016.42
2017-11-09T03:41:16.908Z,1016.44
2017-11-09T03:42:16.920Z,1016.43
2017-11-09T03:43:16.939Z,1016.44
2017-11-09T03:44:16.957Z,1016.44
2017-11-09T03:45:16.979Z,1016.43
2017-11-09T03:46:16.996Z,1016.46
2017-11-09T03:48:17.029Z,1016.48
2017-11-09T03:49:17.050Z,1016.49
2017-11-09T03:50:17.066Z,1016.48
2017-11-09T03:51:17.083Z,1016.49
2017-11-09T03:52:17.101Z,1016.45
2017-11-09T03:53:17.117Z,1016.42
2017-11-09T03:54:17.138Z,1016.42
2017-11-09T03:55:17.156Z,1016.39
2017-11-09T03:56:17.172Z,1016.39
2017-11-09T03:57:17.186Z,1016.39
2017-11-09T03:58:17.208Z,1016.36
2017-11-09T03:59:17.231Z,1016.36
2017-11-09T04:00:17.244Z,1016.37
2017-11-09T04:01:17.259Z,1016.4
2017-11-09T04:02:17.280Z,1016.38
2017-11-09T04:03:17.298Z,1016.38
2017-11-09T04:04:17.315Z,1016.39
2017-11-09T04:05:17.329Z,1016.41
2017-11-09T04:06:17.349Z,1016.4
2017-11-09T04:07:17.367Z,1016.38
2017-11-09T04:08:17.390Z,1016.38
2017-11-09T04:09:17.400Z,1016.36
2017-11-09T04:10:17.416Z,1016.39
2017-11-09T04:11:17.437Z,1016.35
2017-11-09T04:12:17.458Z,1016.33
2017-11-09T04:13:17.470Z,1016.33
2017-11-09T04:14:17.488Z,1016.3
2017-11-09T04:15:17.508Z,1016.34
2017-11-09T04:16:17.533Z,1016.36
2017-11-09T04:17:17.554Z,1016.33
2017-11-09T04:18:17.558Z,1016.32
2017-11-09T04:20:17.593Z,1016.33
2017-11-09T04:21:17.614Z,1016.33
2017-11-09T04:22:17.628Z,1016.31
2017-11-09T04:23:17.650Z,1016.35
2017-11-09T04:24:17.668Z,1016.32
2017-11-09T04:25:17.685Z,1016.32
2017-11-09T04:26:17.702Z,1016.32
2017-11-09T04:27:17.717Z,1016.31
2017-11-09T04:28:17.738Z,1016.29
2017-11-09T04:29:17.752Z,1016.29
2017-11-09T04:30:17.782Z,1016.31
2017-11-09T04:31:17.792Z,1016.28
2017-11-09T04:32:17.805Z,1016.32
2017-11-09T04:33:17.826Z,1016.36
2017-11-09T04:34:17.841Z,1016.36
2017-11-09T04:36:17.879Z,1016.39
2017-11-09T04:37:17.893Z,1016.38
2017-11-09T04:38:17.915Z,1016.38
2017-11-09T04:39:17.932Z,1016.41
2017-11-09T04:40:17.954Z,1016.41
2017-11-09T04:41:17.970Z,1016.43
2017-11-09T04:42:17.985Z,1016.43
2017-11-09T04:43:18.000Z,1016.47
2017-11-09T04:44:18.019Z,1016.45
2017-11-09T04:45:18.038Z,1016.46
2017-11-09T04:46:18.052Z,1016.48
2017-11-09T04:47:18.076Z,1016.49
2017-11-09T04:48:18.090Z,1016.48
2017-11-09T04:49:18.105Z,1016.51
2017-11-09T04:50:18.124Z,1016.48
2017-11-09T04:52:18.158Z,1016.47
2017-11-09T04:53:18.189Z,1016.46
2017-11-09T04:54:18.204Z,1016.44
2017-11-09T04:55:18.215Z,1016.47
2017-11-09T04:56:18.232Z,1016.49
2017-11-09T04:57:18.255Z,1016.51
2017-11-09T04:58:18.269Z,1016.55
2017-11-09T04:59:18.284Z,1016.55
2017-11-09T05:00:18.300Z,1016.55
2017-11-09T05:01:18.318Z,1016.55
2017-11-09T05:02:18.341Z,1016.59
2017-11-09T05:03:18.352Z,1016.59
2017-11-09T05:04:18.374Z,1016.61
2017-11-09T05:05:18.389Z,1016.63
2017-11-09T05:06:18.408Z,1016.63
2017-11-09T05:08:18.454Z,1016.61
2017-11-09T05:09:18.463Z,1016.65
2017-11-09T05:10:18.484Z,1016.64
2017-11-09T05:11:18.494Z,1016.61
2017-11-09T05:12:18.512Z,1016.6
2017-11-09T05:13:18.531Z,1016.63
2017-11-09T05:14:18.550Z,1016.62
2017-11-09T05:15:18.571Z,1016.64
2017-11-09T05:16:18.582Z,1016.7
2017-11-09T05:17:18.600Z,1016.69
2017-11-09T05:18:18.621Z,1016.69
2017-11-09T05:19:18.635Z,1016.7
2017-11-09T05:20:18.654Z,1016.72
2017-11-09T05:21:18.670Z,1016.72
2017-11-09T05:23:18.708Z,1016.78
2017-11-09T05:24:18.726Z,1016.73
2017-11-09T05:25:18.742Z,1016.76
2017-11-09T05:26:18.761Z,1016.77
2017-11-09T05:27:18.778Z,1016.77
2017-11-09T05:28:18.799Z,1016.71
2017-11-09T05:29:18.813Z,1016.77
2017-11-09T05:30:18.832Z,1016.75
2017-11-09T05:31:18.847Z,1016.76
2017-11-09T05:32:18.865Z,1016.73
2017-11-09T05:33:18.887Z,1016.71
2017-11-09T05:34:18.905Z,1016.7
2017-11-09T05:35:18.919Z,1016.69
2017-11-09T05:36:18.937Z,1016.71
2017-11-09T05:37:18.955Z,1016.68
2017-11-09T05:38:18.974Z,1016.66
2017-11-09T05:39:18.991Z,1016.67
2017-11-09T05:40:19.008Z,1016.63
2017-11-09T05:41:19.028Z,1016.67
2017-11-09T05:42:19.045Z,1016.67
2017-11-09T05:43:19.062Z,1016.68
2017-11-09T05:44:19.079Z,1016.7
2017-11-09T05:45:19.099Z,1016.74
2017-11-09T05:46:19.116Z,1016.73
2017-11-09T05:47:19.136Z,1016.79
2017-11-09T05:48:19.148Z,1016.77
2017-11-09T05:49:19.170Z,1016.8
2017-11-09T05:50:19.184Z,1016.78
2017-11-09T05:51:19.206Z,1016.73
2017-11-09T05:52:19.223Z,1016.71
2017-11-09T05:53:19.237Z,1016.71
2017-11-09T05:55:19.277Z,1016.72
2017-11-09T05:56:19.291Z,1016.74
2017-11-09T05:57:19.309Z,1016.73
2017-11-09T05:58:19.334Z,1016.79
2017-11-09T05:59:19.342Z,1016.74
2017-11-09T06:00:19.364Z,1016.71
2017-11-09T06:01:19.379Z,1016.75
2017-11-09T06:02:19.395Z,1016.74
2017-11-09T06:03:19.416Z,1016.74
2017-11-09T06:04:19.433Z,1016.69
2017-11-09T06:05:19.449Z,1016.72
2017-11-09T06:06:19.470Z,1016.71
2017-11-09T06:07:19.489Z,1016.66
2017-11-09T06:08:19.507Z,1016.69
2017-11-09T06:09:19.522Z,1016.69
2017-11-09T06:11:19.556Z,1016.72
2017-11-09T06:12:19.573Z,1016.73
2017-11-09T06:13:19.590Z,1016.74
2017-11-09T06:14:19.611Z,1016.75
2017-11-09T06:15:19.628Z,1016.78
2017-11-09T06:16:19.643Z,1016.79
2017-11-09T06:17:19.662Z,1016.79
2017-11-09T06:18:19.679Z,1016.84
2017-11-09T06:19:19.697Z,1016.83
2017-11-09T06:20:19.717Z,1016.87
2017-11-09T06:21:19.735Z,1016.85
2017-11-09T06:22:19.751Z,1016.85
2017-11-09T06:23:19.770Z,1016.84
2017-11-09T06:24:19.785Z,1016.83
2017-11-09T06:25:19.806Z,1016.84
2017-11-09T06:27:19.838Z,1016.84
2017-11-09T06:28:19.857Z,1016.83
2017-11-09T06:29:19.875Z,1016.83
2017-11-09T06:30:19.891Z,1016.79
2017-11-09T06:31:19.912Z,1016.82
2017-11-09T06:32:19.930Z,1016.79
2017-11-09T06:33:19.946Z,1016.82
2017-11-09T06:34:19.963Z,1016.86
2017-11-09T06:35:19.980Z,1016.86
2017-11-09T06:36:20.002Z,1016.81
2017-11-09T06:37:20.019Z,1016.89
2017-11-09T06:38:20.037Z,1016.87
2017-11-09T06:39:20.051Z,1016.86
2017-11-09T06:40:20.069Z,1016.84
2017-11-09T06:41:20.086Z,1016.82
2017-11-09T06:43:20.122Z,1016.85
2017-11-09T06:44:20.145Z,1016.82
2017-11-09T06:45:20.508Z,1016.84
2017-11-09T06:46:20.177Z,1016.87
2017-11-09T06:47:20.200Z,1016.9
2017-11-09T06:48:20.211Z,1016.94
2017-11-09T06:49:20.230Z,1016.9
2017-11-09T06:50:20.248Z,1016.95
2017-11-09T06:51:20.268Z,1016.92
2017-11-09T06:52:20.283Z,1016.91
2017-11-09T06:53:20.301Z,1016.94
2017-11-09T06:54:20.322Z,1016.95
2017-11-09T06:55:20.337Z,1016.97
2017-11-09T06:56:20.358Z,1016.97
2017-11-09T06:58:20.390Z,1017.04
2017-11-09T06:59:20.410Z,1017.07
2017-11-09T07:00:20.430Z,1017.06
2017-11-09T07:01:20.446Z,1017.06
2017-11-09T07:02:20.473Z,1017.08
2017-11-09T07:03:20.480Z,1017.09
2017-11-09T07:04:20.501Z,1017.11
2017-11-09T07:05:20.516Z,1017.1
2017-11-09T07:06:20.533Z,1017.05
2017-11-09T07:07:20.556Z,1017.09
2017-11-09T07:08:20.571Z,1017.1
2017-11-09T07:09:20.586Z,1017.08
2017-11-09T07:10:20.609Z,1017.11
2017-11-09T07:11:20.626Z,1017.11
2017-11-09T07:12:20.640Z,1017.13
2017-11-09T07:13:20.661Z,1017.12
2017-11-09T07:14:20.677Z,1017.15
2017-11-09T07:15:20.696Z,1017.11
2017-11-09T07:16:20.734Z,1017.14
2017-11-09T07:17:20.728Z,1017.1
2017-11-09T07:18:20.751Z,1017.13
2017-11-09T07:19:20.780Z,1017.13
2017-11-09T07:20:20.784Z,1017.12
2017-11-09T07:21:20.823Z,1017.12
2017-11-09T07:22:20.822Z,1017.09
2017-11-09T07:23:20.837Z,1017.06
2017-11-09T07:24:20.860Z,1017.08
2017-11-09T07:25:20.875Z,1017.03
2017-11-09T07:26:20.894Z,1017.03
2017-11-09T07:27:20.913Z,1017.06
2017-11-09T07:28:20.930Z,1017.04
2017-11-09T07:30:20.970Z,1017.06
2017-11-09T07:31:20.984Z,1017.05
2017-11-09T07:32:21.002Z,1017.05
2017-11-09T07:33:21.016Z,1017.09
2017-11-09T07:34:21.037Z,1017.05
2017-11-09T07:35:21.054Z,1017.07
2017-11-09T07:36:21.072Z,1017.01
2017-11-09T07:37:21.091Z,1017.05
2017-11-09T07:38:21.106Z,1017.04
2017-11-09T07:39:21.127Z,1017.03
2017-11-09T07:40:21.145Z,1017.01
2017-11-09T07:41:21.163Z,1016.98
2017-11-09T07:42:21.180Z,1016.99
2017-11-09T07:43:21.199Z,1016.96
2017-11-09T07:44:21.213Z,1016.97
2017-11-09T07:46:21.253Z,1016.96
2017-11-09T07:47:21.267Z,1016.95
2017-11-09T07:48:21.287Z,1016.94
2017-11-09T07:49:21.303Z,1016.94
2017-11-09T07:50:21.321Z,1016.97
2017-11-09T07:51:21.343Z,1016.94
2017-11-09T07:52:21.359Z,1016.94
2017-11-09T07:53:21.379Z,1016.94
2017-11-09T07:54:21.395Z,1016.97
2017-11-09T07:55:21.413Z,1016.99
2017-11-09T07:56:21.431Z,1016.97
2017-11-09T07:57:21.450Z,1016.97
2017-11-09T07:58:21.464Z,1016.98
2017-11-09T07:59:21.483Z,1016.97
2017-11-09T08:00:21.502Z,1016.98
2017-11-09T08:02:21.537Z,1016.95
2017-11-09T08:03:21.555Z,1016.95
2017-11-09T08:04:21.573Z,1016.94
2017-11-09T08:05:21.597Z,1016.97
2017-11-09T08:06:21.608Z,1016.96
2017-11-09T08:07:21.626Z,1016.96
2017-11-09T08:08:21.648Z,1017
2017-11-09T08:09:21.662Z,1017.04
2017-11-09T08:10:21.679Z,1017.06
2017-11-09T08:11:21.701Z,1017.06
2017-11-09T08:12:21.716Z,1017.08
2017-11-09T08:13:21.735Z,1017.08
2017-11-09T08:14:21.753Z,1017.09
2017-11-09T08:15:21.771Z,1017.06
2017-11-09T08:16:21.790Z,1017.07
2017-11-09T08:18:21.828Z,1017.04
2017-11-09T08:19:21.843Z,1017.04
2017-11-09T08:20:21.859Z,1017.03
2017-11-09T08:21:21.881Z,1016.98
2017-11-09T08:22:21.897Z,1017.04
2017-11-09T08:23:21.919Z,1017.05
2017-11-09T08:24:21.932Z,1017.04
2017-11-09T08:25:21.952Z,1017.06
2017-11-09T08:26:21.970Z,1017.09
2017-11-09T08:27:21.986Z,1017.08
2017-11-09T08:28:22.005Z,1017.09
2017-11-09T08:29:22.023Z,1017.09
2017-11-09T08:30:22.040Z,1017.05
2017-11-09T08:31:22.062Z,1017.04
2017-11-09T08:33:22.099Z,1017.03
2017-11-09T08:34:22.117Z,1017.04
2017-11-09T08:35:22.135Z,1017.05
2017-11-09T08:36:22.153Z,1017
2017-11-09T08:37:22.173Z,1016.98
2017-11-09T08:38:22.186Z,1017
2017-11-09T08:39:22.203Z,1016.98
2017-11-09T08:40:22.228Z,1016.95
2017-11-09T08:41:22.239Z,1016.96
2017-11-09T08:42:22.272Z,1016.94
2017-11-09T08:43:22.276Z,1016.97
2017-11-09T08:44:22.295Z,1016.93
2017-11-09T08:45:22.313Z,1016.92
2017-11-09T08:46:22.332Z,1016.92
2017-11-09T08:47:22.348Z,1016.9
2017-11-09T08:48:22.369Z,1016.87
2017-11-09T08:49:22.390Z,1016.86
2017-11-09T08:50:22.404Z,1016.86
2017-11-09T08:51:22.424Z,1016.82
2017-11-09T08:52:22.437Z,1016.85
2017-11-09T08:53:22.456Z,1016.85
2017-11-09T08:54:22.478Z,1016.83
2017-11-09T08:55:22.497Z,1016.8
2017-11-09T08:56:22.517Z,1016.79
2017-11-09T08:57:22.528Z,1016.79
2017-11-09T08:58:22.548Z,1016.8
2017-11-09T08:59:22.567Z,1016.78
2017-11-09T09:00:22.587Z,1016.8
2017-11-09T09:01:22.601Z,1016.81
2017-11-09T09:02:22.620Z,1016.81
2017-11-09T09:03:22.637Z,1016.83
2017-11-09T09:05:22.677Z,1016.82
2017-11-09T09:06:22.693Z,1016.76
2017-11-09T09:07:22.710Z,1016.79
2017-11-09T09:08:22.731Z,1016.79
2017-11-09T09:09:22.747Z,1016.78
2017-11-09T09:10:22.768Z,1016.81
2017-11-09T09:11:22.783Z,1016.83
2017-11-09T09:12:22.804Z,1016.81
2017-11-09T09:13:22.819Z,1016.79
2017-11-09T09:14:22.841Z,1016.84
2017-11-09T09:15:22.856Z,1016.77
2017-11-09T09:16:22.877Z,1016.8
2017-11-09T09:17:22.892Z,1016.78
2017-11-09T09:18:22.913Z,1016.78
2017-11-09T09:19:22.931Z,1016.84
2017-11-09T09:21:22.968Z,1016.84
2017-11-09T09:22:22.987Z,1016.83
2017-11-09T09:23:23.000Z,1016.85
2017-11-09T09:24:23.019Z,1016.85
2017-11-09T09:25:23.041Z,1016.86
2017-11-09T09:26:23.060Z,1016.86
2017-11-09T09:27:23.078Z,1016.85
2017-11-09T09:28:23.096Z,1016.8
2017-11-09T09:29:23.113Z,1016.79
2017-11-09T09:30:23.129Z,1016.84
2017-11-09T09:31:23.147Z,1016.81
2017-11-09T09:32:23.169Z,1016.81
2017-11-09T09:33:23.196Z,1016.83
2017-11-09T09:34:23.208Z,1016.81
2017-11-09T09:35:23.221Z,1016.81
2017-11-09T09:37:23.255Z,1016.78
2017-11-09T09:38:23.277Z,1016.79
2017-11-09T09:39:23.298Z,1016.79
2017-11-09T09:40:23.311Z,1016.82
2017-11-09T09:41:23.338Z,1016.77
2017-11-09T09:42:23.351Z,1016.83
2017-11-09T09:43:23.369Z,1016.81
2017-11-09T09:44:23.383Z,1016.79
2017-11-09T09:45:23.402Z,1016.79
2017-11-09T09:46:23.421Z,1016.82
2017-11-09T09:47:23.439Z,1016.83
2017-11-09T09:48:23.456Z,1016.79
2017-11-09T09:49:23.485Z,1016.77
2017-11-09T09:50:23.498Z,1016.76
2017-11-09T09:51:23.516Z,1016.73
2017-11-09T09:53:23.551Z,1016.72
2017-11-09T09:54:23.570Z,1016.69
2017-11-09T09:55:23.588Z,1016.7
2017-11-09T09:56:23.604Z,1016.67
2017-11-09T09:57:23.624Z,1016.65
2017-11-09T09:58:23.649Z,1016.66
2017-11-09T09:59:23.667Z,1016.69
2017-11-09T10:00:23.680Z,1016.65
2017-11-09T10:01:23.699Z,1016.67
2017-11-09T10:02:23.713Z,1016.68
2017-11-09T10:03:23.731Z,1016.7
2017-11-09T10:04:23.754Z,1016.71
2017-11-09T10:05:23.768Z,1016.7
2017-11-09T10:06:23.788Z,1016.68
2017-11-09T10:08:23.828Z,1016.68
2017-11-09T10:09:23.842Z,1016.69
2017-11-09T10:10:23.859Z,1016.69
2017-11-09T10:11:23.878Z,1016.69
2017-11-09T10:12:23.899Z,1016.71
2017-11-09T10:13:23.915Z,1016.67
2017-11-09T10:14:23.934Z,1016.7
2017-11-09T10:15:23.961Z,1016.7
2017-11-09T10:16:23.975Z,1016.71
2017-11-09T10:17:23.989Z,1016.68
2017-11-09T10:18:24.005Z,1016.68
2017-11-09T10:19:24.027Z,1016.67
2017-11-09T10:20:24.051Z,1016.67
2017-11-09T10:21:24.062Z,1016.69
2017-11-09T10:22:24.082Z,1016.67
2017-11-09T10:23:24.098Z,1016.69
2017-11-09T10:24:24.115Z,1016.7
2017-11-09T10:25:24.137Z,1016.65
2017-11-09T10:26:24.156Z,1016.7
2017-11-09T10:27:24.170Z,1016.72
2017-11-09T10:28:24.190Z,1016.69
2017-11-09T10:29:24.210Z,1016.65
2017-11-09T10:30:24.226Z,1016.66
2017-11-09T10:31:24.248Z,1016.65
2017-11-09T10:32:24.266Z,1016.64
2017-11-09T10:33:24.280Z,1016.63
2017-11-09T10:34:24.302Z,1016.64
2017-11-09T10:35:24.320Z,1016.66
2017-11-09T10:36:24.338Z,1016.63
2017-11-09T10:37:24.357Z,1016.63
2017-11-09T10:38:24.371Z,1016.66
2017-11-09T10:40:24.411Z,1016.64
2017-11-09T10:41:24.429Z,1016.64
2017-11-09T10:42:24.448Z,1016.62
2017-11-09T10:43:24.462Z,1016.65
2017-11-09T10:44:24.484Z,1016.65
2017-11-09T10:45:24.499Z,1016.63
2017-11-09T10:46:24.517Z,1016.66
2017-11-09T10:47:24.540Z,1016.61
2017-11-09T10:48:24.554Z,1016.62
2017-11-09T10:49:24.573Z,1016.6
2017-11-09T10:50:24.593Z,1016.53
2017-11-09T10:51:24.608Z,1016.54
2017-11-09T10:52:24.631Z,1016.51
2017-11-09T10:53:24.649Z,1016.55
2017-11-09T10:54:24.664Z,1016.52
2017-11-09T10:56:24.703Z,1016.49
2017-11-09T10:57:24.719Z,1016.48
2017-11-09T10:58:24.741Z,1016.45
2017-11-09T10:59:24.754Z,1016.44
2017-11-09T11:00:24.776Z,1016.41
2017-11-09T11:01:24.792Z,1016.43
2017-11-09T11:02:24.809Z,1016.45
2017-11-09T11:03:24.832Z,1016.45
2017-11-09T11:04:24.848Z,1016.46
2017-11-09T11:05:24.867Z,1016.47
2017-11-09T11:06:24.883Z,1016.47
2017-11-09T11:07:24.905Z,1016.46
2017-11-09T11:08:24.919Z,1016.46
2017-11-09T11:09:24.948Z,1016.42
2017-11-09T11:10:24.960Z,1016.49
2017-11-09T11:12:24.999Z,1016.49
2017-11-09T11:13:25.010Z,1016.53
2017-11-09T11:14:25.033Z,1016.55
2017-11-09T11:15:25.049Z,1016.55
2017-11-09T11:16:25.068Z,1016.52
2017-11-09T11:17:25.083Z,1016.5
2017-11-09T11:18:25.104Z,1016.51
2017-11-09T11:19:25.120Z,1016.45
2017-11-09T11:20:25.137Z,1016.41
2017-11-09T11:21:25.157Z,1016.43
2017-11-09T11:22:25.195Z,1016.41
2017-11-09T11:23:25.194Z,1016.42
2017-11-09T11:24:25.211Z,1016.41
2017-11-09T11:25:25.232Z,1016.41
2017-11-09T11:26:25.251Z,1016.39
2017-11-09T11:28:25.287Z,1016.42
2017-11-09T11:29:25.303Z,1016.39
2017-11-09T11:30:25.320Z,1016.43
2017-11-09T11:31:25.339Z,1016.45
2017-11-09T11:32:25.361Z,1016.45
2017-11-09T11:33:25.378Z,1016.43
2017-11-09T11:34:25.397Z,1016.44
2017-11-09T11:35:25.415Z,1016.37
2017-11-09T11:36:25.434Z,1016.41
2017-11-09T11:37:25.447Z,1016.37
2017-11-09T11:38:25.475Z,1016.42
2017-11-09T11:39:25.487Z,1016.39
2017-11-09T11:40:25.510Z,1016.38
2017-11-09T11:41:25.524Z,1016.37
2017-11-09T11:43:25.558Z,1016.42
2017-11-09T11:44:25.587Z,1016.37
2017-11-09T11:45:25.594Z,1016.37
2017-11-09T11:46:25.613Z,1016.36
2017-11-09T11:47:25.635Z,1016.39
2017-11-09T11:48:25.655Z,1016.4
2017-11-09T11:49:25.668Z,1016.41
2017-11-09T11:50:25.685Z,1016.39
2017-11-09T11:51:25.707Z,1016.48
2017-11-09T11:52:25.725Z,1016.44
2017-11-09T11:53:25.741Z,1016.42
2017-11-09T11:54:25.762Z,1016.49
2017-11-09T11:55:25.776Z,1016.5
2017-11-09T11:56:25.797Z,1016.43
2017-11-09T11:57:25.813Z,1016.44
2017-11-09T11:58:25.835Z,1016.44
2017-11-09T11:59:25.849Z,1016.42
2017-11-09T12:00:25.868Z,1016.43
2017-11-09T12:01:25.889Z,1016.37
2017-11-09T12:02:25.905Z,1016.33
2017-11-09T12:03:25.924Z,1016.3
2017-11-09T12:04:25.943Z,1016.28
2017-11-09T12:05:25.961Z,1016.25
2017-11-09T12:06:25.976Z,1016.3
2017-11-09T12:07:25.995Z,1016.25
2017-11-09T12:08:26.012Z,1016.28
2017-11-09T12:09:26.032Z,1016.29
2017-11-09T12:10:26.051Z,1016.28
2017-11-09T12:11:26.070Z,1016.34
2017-11-09T12:12:26.089Z,1016.31
2017-11-09T12:13:26.108Z,1016.33
2017-11-09T12:15:26.150Z,1016.35
2017-11-09T12:16:26.172Z,1016.31
2017-11-09T12:17:26.178Z,1016.32
2017-11-09T12:18:26.199Z,1016.28
2017-11-09T12:19:26.225Z,1016.28
2017-11-09T12:20:26.238Z,1016.3
2017-11-09T12:21:26.249Z,1016.32
2017-11-09T12:22:26.267Z,1016.36
2017-11-09T12:23:26.291Z,1016.37
2017-11-09T12:24:26.303Z,1016.39
2017-11-09T12:25:26.324Z,1016.33
2017-11-09T12:26:26.341Z,1016.38
2017-11-09T12:27:26.359Z,1016.41
2017-11-09T12:28:26.379Z,1016.39
2017-11-09T12:29:26.399Z,1016.41
2017-11-09T12:31:26.434Z,1016.35
2017-11-09T12:32:26.450Z,1016.34
2017-11-09T12:33:26.473Z,1016.38
2017-11-09T12:34:26.486Z,1016.34
2017-11-09T12:35:26.506Z,1016.3
2017-11-09T12:36:26.523Z,1016.32
2017-11-09T12:37:26.553Z,1016.25
2017-11-09T12:38:26.562Z,1016.26
2017-11-09T12:39:26.581Z,1016.26
2017-11-09T12:40:26.598Z,1016.26
2017-11-09T12:41:26.618Z,1016.29
2017-11-09T12:42:26.635Z,1016.3
2017-11-09T12:43:26.654Z,1016.32
2017-11-09T12:44:26.672Z,1016.3
2017-11-09T12:45:26.690Z,1016.32
2017-11-09T12:47:26.723Z,1016.34
2017-11-09T12:48:26.744Z,1016.3